This is the latest recevied weather packets stored in our database for station/object EIDW. If no packets are shown the sender has not sent any weather packets the latest 1 day(s).
| Time | Temp. | Humidity | Pressure | Rain* | Wind** | Luminosity | Snow |
|---|---|---|---|---|---|---|---|
| 1778082204 | 11.67° C | 62% | 1013 hPa | - | - | - | - |
| 1778081605 | 12.78° C | 58% | 1010 hPa | - | - | - | - |
| 1778081006 | 12.78° C | 58% | 1010 hPa | - | - | - | - |
| 1778080405 | 12.78° C | 58% | 1010 hPa | - | - | - | - |
| 1778078005 | 12.78° C | 54% | 1013 hPa | - | - | - | - |
| 1778075603 | 12.78° C | 58% | 1009 hPa | - | - | - | - |
| 1778075002 | 12.78° C | 58% | 1009 hPa | - | - | - | - |
| 1778071404 | 12.78° C | 54% | 1014 hPa | - | - | - | - |
| 1778070802 | 12.78° C | 54% | 1009 hPa | - | - | - | - |
| 1778067803 | 12.78° C | 37% | 1009 hPa | - | - | - | - |
| 1778063603 | 11.67° C | 46% | 1014 hPa | - | - | - | - |
| 1778063005 | 11.67° C | 46% | 1014 hPa | - | - | - | - |
| 1778061206 | 10.56° C | 53% | 1015 hPa | - | - | - | - |
| 1778060728 | 10.56° C | 53% | 1015 hPa | - | - | - | - |
| 1778059403 | 8.89° C | 76% | 1015 hPa | - | - | - | - |
| 1778058206 | 8.89° C | 76% | 1015 hPa | - | - | - | - |
| 1778057606 | 8.89° C | 76% | 1015 hPa | - | - | - | - |
| 1778057008 | 8.89° C | 76% | 1015 hPa | - | - | - | - |
| 1778055802 | 7.78° C | 75% | 1015 hPa | - | - | - | - |
| 1778055201 | 7.78° C | 75% | 1015 hPa | - | - | - | - |
| 1778054602 | 5.56° C | 81% | 1015 hPa | - | - | - | - |
| 1778054000 | 5.56° C | 81% | 1015 hPa | - | - | - | - |
| 1778053404 | 5.56° C | 81% | 1015 hPa | - | - | - | - |
| 1778052203 | 5.56° C | 75% | 1015 hPa | - | - | - | - |
| 1778051604 | 5.56° C | 75% | 1015 hPa | - | - | - | - |
* Rain since midnight (hover to see other rain measurements)
** Current wind speed in m/s (hover to see current wind gust speed)